• Join FlightAware (Why Join?)
  • Login
  • US Flag 
08:22AM EST


 

Airport Tracker/Info


-or-


 

Live Flight TrackerFlight Track Log ✈ TAI590 ✈ 18-Aug-2014 ✈ MSLP / SAL - KIAD

Flight Track Log - Related Links

Times and Time Zones

All times are in EDT time to prevent confusion due to time zone crossing. See the TAI590 flight status page for this flight to view local times or setup timezone preferences in your user account.

Time Position Orientation Groundspeed Altitude Reporting Facility
EDT Latitude Longitude Course Direction KTS MPH feet Rate Location/Type
11:23PM 15.5984 -88.2685 26° Northeast  Level FlightAware Approximate
11:24PM 15.7734 -88.1958 19° North  Level FlightAware Approximate
11:25PM 15.9458 -88.1352 19° North  Level FlightAware Approximate
11:26PM 16.1182 -88.0744 19° North  Level FlightAware Approximate
11:27PM 16.2905 -88.0135 19° North  Level FlightAware Approximate
11:28PM 16.4629 -87.9526 19° North  Level FlightAware Approximate
11:29PM 16.6352 -87.8915 19° North  Level FlightAware Approximate
11:30PM 16.8075 -87.8303 19° North  Level FlightAware Approximate
11:31PM 16.9797 -87.7690 19° North  Level FlightAware Approximate
11:32PM 17.1520 -87.7076 19° North  Level FlightAware Approximate
11:33PM 17.3239 -87.6452 20° North  Level FlightAware Approximate
11:34PM 17.4952 -87.5807 20° North  Level FlightAware Approximate
11:35PM 17.6665 -87.5162 20° North  Level FlightAware Approximate
11:36PM 17.8378 -87.4516 20° North  Level FlightAware Approximate
11:37PM 18.0090 -87.3868 20° North  Level FlightAware Approximate
11:38PM 18.1802 -87.3219 20° North  Level FlightAware Approximate
11:39PM 18.3514 -87.2569 20° North  Level FlightAware Approximate
11:40PM 18.5226 -87.1917 20° North  Level FlightAware Approximate
11:41PM 18.6937 -87.1264 20° North  Level FlightAware Approximate
11:42PM 18.8649 -87.0612 19° North  Level FlightAware Approximate
11:43PM 19.0368 -86.9978 19° North  Level FlightAware Approximate
11:44PM 19.2086 -86.9344 19° North  Level FlightAware Approximate
11:45PM 19.3804 -86.8708 19° North  Level FlightAware Approximate
11:46PM 19.5522 -86.8070 19° North  Level FlightAware Approximate
11:47PM 19.7239 -86.7431 19° North  Level FlightAware Approximate
11:48PM 19.8956 -86.6791 19° North  Level FlightAware Approximate
11:49PM 20.0673 -86.6150 19° North  Level FlightAware Approximate
11:50PM 20.2390 -86.5507 19° North  Level FlightAware Approximate
11:51PM 20.4107 -86.4862 19° North  Level FlightAware Approximate
11:52PM 20.5823 -86.4216 19° North  Level FlightAware Approximate
11:53PM 20.7540 -86.3569 19° North  Level FlightAware Approximate
11:54PM 20.9255 -86.2920 19° North  Level FlightAware Approximate
11:55PM 21.0971 -86.2270 19° North  Level FlightAware Approximate
11:56PM 21.2687 -86.1618 19° North  Level FlightAware Approximate
11:57PM 21.4402 -86.0965 20° North  Level FlightAware Approximate
11:58PM 21.6117 -86.0310 20° North  Level FlightAware Approximate
11:59PM 21.7831 -85.9654 20° North  Level FlightAware Approximate
12:00AM 21.9543 -85.8989 20° North  Level FlightAware Approximate
12:01AM 22.1254 -85.8318 20° North  Level FlightAware Approximate
12:01AM 20.0268 -87.4247 360° North 462 532 35,000  Level FlightAware ADS-B (MMUN / CUN)
12:02AM 22.2963 -85.7644 20° North  Level FlightAware Approximate
12:02AM 20.1249 -87.3945 16° North 462 532 35,000  Level FlightAware ADS-B (MMUN / CUN)
12:03AM 20.2291 -87.3626 16° North 464 534 35,000  Level FlightAware ADS-B (MMUN / CUN)
12:04AM 20.2893 -87.3441 16° North 467 537 35,000  Level FlightAware ADS-B (MMUN / CUN)
12:04AM 20.3498 -87.3255 16° North 464 534 35,000  Level FlightAware ADS-B (MMUN / CUN)
12:05AM 20.4074 -87.3077 360° North 461 531 35,000  Level FlightAware ADS-B (MMUN / CUN)
12:05AM 20.4660 -87.2898 360° North 460 529 35,000  Level FlightAware ADS-B (MMUN / CUN)
12:06AM 20.5243 -87.2718 360° North 459 528 35,000  Level FlightAware ADS-B (MMUN / CUN)
12:06AM 20.5825 -87.2538 360° North 457 526 35,000  Level FlightAware ADS-B (MMUN / CUN)
12:07AM 20.6378 -87.2368 360° North 458 527 35,000 -103 Level FlightAware ADS-B (MMUN / CUN)
12:07AM 20.6945 -87.2191 360° North 456 525 34,900  Descending FlightAware ADS-B (MMUN / CUN)
12:08AM 20.7598 -87.1988 16° North 454 522 35,000 95 Climbing FlightAware ADS-B (MMUN / CUN)
12:08AM 20.8172 -87.1812 16° North 455 524 35,000  Level FlightAware ADS-B (MMUN / CUN)
12:09AM 20.8743 -87.1635 360° North 457 526 35,000  Level FlightAware ADS-B (MMUN / CUN)
12:09AM 20.9345 -87.1446 16° North 460 529 35,000  Level FlightAware ADS-B (MMUN / CUN)
12:10AM 20.9902 -87.1274 360° North 462 532 35,000 105 Level FlightAware ADS-B (MMUN / CUN)
12:10AM 21.0472 -87.1097 360° North 462 532 35,100 98 Climbing FlightAware ADS-B (MMUN / CUN)
12:11AM 21.1085 -87.0905 360° North 463 533 35,100 -98 Level FlightAware ADS-B (MMUN / CUN)
12:11AM 21.1665 -87.0725 360° North 462 532 35,000 -100 Descending FlightAware ADS-B (MMUN / CUN)
12:12AM 21.2269 -87.0538 360° North 461 531 35,000  Level FlightAware ADS-B (MMUN / CUN)
12:12AM 21.2861 -87.0353 360° North 460 529 35,000  Level FlightAware ADS-B (MMUN / CUN)
12:13AM 21.3409 -87.0184 360° North 461 531 35,000  Level FlightAware ADS-B (MMUN / CUN)
12:13AM 21.4000 -87.0001 360° North 461 531 35,000  Level FlightAware ADS-B (MMUN / CUN)
12:14AM 21.4604 -86.9809 360° North 459 528 35,000  Level FlightAware ADS-B (MMUN / CUN)
12:14AM 21.5143 -86.9642 360° North 459 528 35,000  Level FlightAware ADS-B (MMUN / CUN)
12:15AM 21.5787 -86.9439 360° North 458 527 35,000  Level FlightAware ADS-B (MMUN / CUN)
12:15AM 21.6360 -86.9259 360° North 457 526 35,000  Level FlightAware ADS-B (MMUN / CUN)
12:16AM 21.6949 -86.9073 360° North 458 527 35,000  Level FlightAware ADS-B (MMUN / CUN)
12:16AM 21.7507 -86.8900 360° North 458 527 35,000  Level FlightAware ADS-B (MMUN / CUN)
12:17AM 21.8116 -86.8708 360° North 459 528 35,000  Level FlightAware ADS-B (MMUN / CUN)
12:17AM 21.8669 -86.8535 360° North 459 528 35,000  Level FlightAware ADS-B (MMUN / CUN)
12:18AM 21.9301 -86.8337 360° North 460 529 35,000  Level FlightAware ADS-B (MMUN / CUN)
12:18AM 21.9901 -86.8147 360° North 460 529 35,000  Level FlightAware ADS-B (MMUN / CUN)
12:19AM 22.0478 -86.7963 360° North 461 531 35,000  Level FlightAware ADS-B (MMUN / CUN)
12:19AM 22.1100 -86.7767 16° North 462 532 35,000  Level FlightAware ADS-B (MMUN / CUN)
12:20AM 22.1673 -86.7587 360° North 462 532 35,000  Level FlightAware ADS-B (MMUN / CUN)
12:20AM 22.2296 -86.7390 16° North 462 532 35,000  Level FlightAware ADS-B (MMUN / CUN)
12:21AM 22.2926 -86.7191 16° North 462 532 35,000  Level FlightAware ADS-B (MMUN / CUN)
12:21AM 22.3494 -86.7012 360° North 461 531 35,000  Level FlightAware ADS-B (MMUN / CUN)
12:22AM 22.4102 -86.6816 360° North 460 529 35,000  Level FlightAware ADS-B (MMUN / CUN)
12:22AM 22.4730 -86.6617 16° North 461 531 35,000  Level FlightAware ADS-B (MMUN / CUN)
12:23AM 22.5273 -86.6444 360° North 460 529 35,000  Level FlightAware ADS-B (MMUN / CUN)
12:23AM 22.5910 -86.6241 360° North 459 528 35,000  Level FlightAware ADS-B (MMUN / CUN)
12:24AM 22.6452 -86.6071 16° North 459 528 35,000  Level FlightAware ADS-B (MMUN / CUN)
12:24AM 22.7096 -86.5869 360° North 459 528 35,000  Level FlightAware ADS-B (MMUN / CUN)
12:25AM 22.7712 -86.5671 360° North 459 528 35,000  Level FlightAware ADS-B (MMUN / CUN)
12:25AM 22.8307 -86.5481 360° North 460 529 35,000  Level FlightAware ADS-B (MMUN / CUN)
12:26AM 22.8951 -86.5275 16° North 461 531 35,000  Level FlightAware ADS-B (MMUN / CUN)
12:26AM 22.9542 -86.5086 16° North 461 531 35,000  Level FlightAware ADS-B (MMUN / CUN)
12:27AM 23.0148 -86.4894 16° North 461 531 35,000  Level FlightAware ADS-B (MMUN / CUN)
12:27AM 23.0500 -86.4780 360° North 459 528 35,000  Level FlightAware ADS-B (MMUN / CUN)
12:28AM 23.1353 -86.4508 360° North 457 526 35,000  Level FlightAware ADS-B (MMUN / CUN)
12:28AM 23.1970 -86.4308 17° North 456 525 35,000  Level FlightAware ADS-B (MMUN / CUN)
12:29AM 23.2445 -86.4156 360° North 459 528 35,000  Level FlightAware ADS-B (MMUN / CUN)
12:29AM 23.3181 -86.3920 16° North 461 531 35,000  Level FlightAware ADS-B (MMUN / CUN)
12:29AM 23.3302 -86.3881 360° North 461 531 35,000  Level FlightAware ADS-B (MMUN / CUN)
12:30AM 23.4472 -86.3503 360° North 461 531 35,000  Level FlightAware ADS-B (MMUN / CUN)
12:31AM 23.5015 -86.3328 360° North 460 529 35,000  Level FlightAware ADS-B (MMUN / CUN)
12:33AM 23.7313 -86.2586 16° North 459 528 35,000  Level FlightAware ADS-B (MMUN / CUN)
12:33AM 23.7423 -86.2552 360° North 458 527 35,000  Level FlightAware ADS-B (MMUN / CUN)
12:33AM 23.8082 -86.2338 360° North 457 526 35,000  Level FlightAware ADS-B (MMUN / CUN)
12:35AM 24.0563 -86.1462 360° North 461 531 35,000  Level FlightAware ADS-B (MMUN / CUN)
12:36AM 24.1057 -86.1198 360° North 461 531 35,000 469 Level FlightAware ADS-B (MMUN / CUN)
12:36AM 24.1819 -86.0803 360° North 461 531 35,500 837 Climbing FlightAware ADS-B (MMUN / CUN)
12:37AM 24.2727 -86.0329 360° North 457 526 36,200 750 Climbing FlightAware ADS-B (MMUN / CUN)
12:38AM 24.4082 -85.9619 360° North 454 522 37,000 615 Climbing FlightAware ADS-B (MMUN / CUN)
12:38AM 24.4286 -85.9514 360° North 455 524 37,000  Level FlightAware ADS-B (MMUN / CUN)
12:43AM 25.0212 -85.6376 360° North 453 521 37,000  Level FlightAware ADS-B (KEYW)
12:45AM 25.2115 -85.5360 360° North 454 522 37,000  Level FlightAware ADS-B (KEYW)
12:47AM 25.3954 -85.4374 360° North 453 521 37,000  Level FlightAware ADS-B (KEYW)
12:47AM 25.4622 -85.4016 360° North 453 521 37,000  Level FlightAware ADS-B (KEYW)
12:48AM 25.5782 -85.3380 360° North 452 520 37,000  Level FlightAware ADS-B (KEYW)
12:49AM 25.6369 -85.3058 360° North 450 518 37,000  Level FlightAware ADS-B (KEYW)
12:50AM 25.7351 -85.2522 360° North 452 520 37,000  Level FlightAware ADS-B (KEYW)
12:50AM 25.8026 -85.2151 360° North 451 519 37,000  Level FlightAware ADS-B (KEYW)
12:51AM 25.8563 -85.1852 360° North 453 521 37,000  Level FlightAware ADS-B (KEYW)
12:53AM 26.1178 -85.0414 360° North 455 524 37,000  Level FlightAware ADS-B (KEYW)
12:54AM 26.2057 -84.9930 360° North 455 524 37,000  Level FlightAware ADS-B (KEYW)
12:54AM 26.2659 -84.9595 360° North 453 521 37,000  Level FlightAware ADS-B (KEYW)
12:55AM 26.3253 -84.9266 360° North 454 522 37,000  Level FlightAware ADS-B (KEYW)
12:55AM 26.3783 -84.8972 360° North 454 522 37,000  Level FlightAware ADS-B (KEYW)
12:56AM 26.4678 -84.8473 360° North 453 521 37,000  Level FlightAware ADS-B (KEYW)
12:57AM 26.5586 -84.7966 360° North 452 520 37,000  Level FlightAware ADS-B (KEYW)
12:58AM 26.6348 -84.7540 360° North 453 521 37,000  Level FlightAware ADS-B (KEYW)
12:58AM 26.7507 -84.6897 360° North 453 521 37,000  Level FlightAware ADS-B (KEYW)
12:59AM 26.8162 -84.6529 360° North 454 522 37,000  Level FlightAware ADS-B (KEYW)
01:00AM 26.8973 -84.6074 360° North 455 524 37,000  Level FlightAware ADS-B (KEYW)
01:00AM 26.9615 -84.5713 360° North 455 524 37,000  Level FlightAware ADS-B (KEYW)
01:01AM 27.0737 -84.5082 360° North 455 524 37,000  Level FlightAware ADS-B (KEYW)
01:02AM 27.1003 -84.4931 360° North 455 524 37,000  Level FlightAware ADS-B (KEYW)
01:02AM 27.1585 -84.4605 360° North 455 524 37,000  Level FlightAware ADS-B (KEYW)
01:04AM 27.3405 -84.3575 360° North 455 524 37,000  Level FlightAware ADS-B (KEYW)
01:05AM 27.4605 -84.2893 360° North 455 524 37,000  Level FlightAware ADS-B (KEYW)
01:05AM 27.5223 -84.2544 360° North 454 522 37,000  Level FlightAware ADS-B (KEYW)
01:06AM 27.6285 -84.1941 360° North 454 522 37,000  Level FlightAware ADS-B (KEYW)
01:07AM 27.6988 -84.1541 360° North 454 522 37,000  Level FlightAware ADS-B (KEYW)
01:08AM 27.8752 -84.0528 360° North 454 522 37,000  Level FlightAware ADS-B (KEYW)
01:09AM 27.9205 -84.0269 360° North 454 522 37,000  Level FlightAware ADS-B (KEYW)
01:09AM 27.9883 -83.9897 360° North 471 542 37,000  Level Miami Center
01:10AM 28.1056 -83.9211 27° Northeast 472 543 37,000  Level Miami Center
01:11AM 28.1606 -83.8883 28° Northeast 449 517 37,000  Level Jacksonville Center
01:12AM 28.2781 -83.8211 27° Northeast 454 522 37,000 -50 Level Jacksonville Center
01:13AM 28.3994 -83.7517 27° Northeast 462 532 36,900 -50 Descending Jacksonville Center
01:14AM 28.5147 -83.6839 27° Northeast 468 539 36,900 50 Level Jacksonville Center
01:15AM 28.6319 -83.6164 27° Northeast 468 539 37,000 50 Climbing Jacksonville Center
01:16AM 28.7492 -83.5486 27° Northeast 468 539 37,000  Level Jacksonville Center
01:21AM 29.4221 -83.1526 27° Northeast 455 524 37,000  Level FlightAware ADS-B
01:22AM 29.4624 -83.1291 27° Northeast 455 524 37,000  Level FlightAware ADS-B
01:22AM 29.5052 -83.1039 27° Northeast 457 526 37,000  Level FlightAware ADS-B
01:24AM 29.7757 -82.9425 27° Northeast 454 522 37,000  Level FlightAware ADS-B
01:26AM 29.9106 -82.8620 27° Northeast 458 527 37,000  Level FlightAware ADS-B
01:26AM 30.0140 -82.8000 27° Northeast 457 526 37,000  Level FlightAware ADS-B
01:28AM 30.1695 -82.7066 27° Northeast 456 525 37,000  Level FlightAware ADS-B
01:29AM 30.2482 -82.6589 28° Northeast 459 528 37,000  Level FlightAware ADS-B
01:29AM 30.3257 -82.6124 27° Northeast 455 524 37,000  Level FlightAware ADS-B
01:31AM 30.4788 -82.5195 28° Northeast 454 522 37,000  Level FlightAware ADS-B
01:32AM 30.6858 -82.3941 28° Northeast 456 525 37,000  Level FlightAware ADS-B
01:33AM 30.7561 -82.3536 28° Northeast 462 532 37,000  Level Jacksonville Center
01:34AM 30.8728 -82.2825 28° Northeast 462 532 37,000  Level Jacksonville Center
01:35AM 30.9850 -82.2142 28° Northeast 462 532 37,000 -50 Level Jacksonville Center
01:36AM 31.0975 -82.1428 29° Northeast 457 526 36,900 -50 Descending Jacksonville Center
01:37AM 31.2097 -82.0764 27° Northeast 452 520 36,900  Level Jacksonville Center
01:38AM 31.3242 -82.0050 28° Northeast 446 513 36,900 50 Level Jacksonville Center
01:39AM 31.4342 -81.9381 27° Northeast 446 513 37,000 50 Climbing Jacksonville Center
01:40AM 31.5361 -81.8736 28° Northeast 454 522 37,000  Level Jacksonville Center
01:41AM 31.6608 -81.7967 28° Northeast 454 522 37,000  Level Jacksonville Center
01:42AM 31.7728 -81.7269 28° Northeast 447 514 37,000  Level Jacksonville Center
01:43AM 31.8744 -81.6644 28° Northeast 457 526 37,000  Level Jacksonville Center
01:44AM 31.9989 -81.5844 29° Northeast 457 526 37,000  Level Jacksonville Center
01:50AM 32.7046 -81.1334 28° Northeast 456 525 37,000  Level FlightAware ADS-B
01:51AM 32.8355 -81.0491 28° Northeast 457 526 37,000  Level FlightAware ADS-B
01:52AM 32.9061 -81.0040 28° Northeast 454 522 37,000  Level FlightAware ADS-B
01:54AM 33.1189 -80.8663 28° Northeast 454 522 37,000  Level FlightAware ADS-B
01:55AM 33.2062 -80.8101 28° Northeast 456 525 37,000  Level FlightAware ADS-B
01:56AM 33.3953 -80.6869 29° Northeast 455 524 37,000  Level FlightAware ADS-B
01:57AM 33.4525 -80.6496 29° Northeast 456 525 37,000  Level FlightAware ADS-B
01:58AM 33.5368 -80.5942 29° Northeast 456 525 37,000  Level FlightAware ADS-B
01:58AM 33.6007 -80.5523 29° Northeast 457 526 37,000  Level FlightAware ADS-B
01:59AM 33.6755 -80.5032 29° Northeast 455 524 37,000  Level FlightAware ADS-B
02:00AM 33.7841 -80.4318 29° Northeast 458 527 37,000  Level FlightAware ADS-B
02:00AM 33.8415 -80.3940 29° Northeast 456 525 37,000  Level FlightAware ADS-B
02:01AM 33.9278 -80.3370 29° Northeast 457 526 37,000  Level FlightAware ADS-B
02:02AM 33.9941 -80.2932 28° Northeast 456 525 37,000  Level FlightAware ADS-B
02:03AM 34.1204 -80.2093 29° Northeast 457 526 37,000  Level FlightAware ADS-B
02:04AM 34.2097 -80.1499 29° Northeast 455 524 37,000  Level FlightAware ADS-B
02:04AM 34.2691 -80.1105 29° Northeast 455 524 37,000  Level FlightAware ADS-B
02:05AM 34.3254 -80.0727 29° Northeast 455 524 37,000 -41 Level FlightAware ADS-B
02:07AM 34.5377 -79.9302 29° Northeast 453 521 36,900  Descending FlightAware ADS-B (NZFP)
02:07AM 34.6097 -79.8818 29° Northeast 455 524 37,000 69 Climbing FlightAware ADS-B
02:08AM 34.7011 -79.8198 29° Northeast 455 524 37,000  Level FlightAware ADS-B
02:09AM 34.7714 -79.7726 29° Northeast 454 522 37,000  Level FlightAware ADS-B
02:09AM 34.8322 -79.7311 29° Northeast 456 525 37,000  Level FlightAware ADS-B
02:09AM 34.8244 -79.7364 209° Southwest 455 524 37,000  Level FlightAware ADS-B (NZFP)
02:10AM 34.8721 -79.7043 29° Northeast 455 524 37,000  Level FlightAware ADS-B
02:10AM 34.9257 -79.6677 29° Northeast 456 525 37,000  Level FlightAware ADS-B
02:10AM 34.9468 -79.6533 29° Northeast 455 524 37,000  Level FlightAware ADS-B
02:11AM 34.9775 -79.6327 27° Northeast 455 524 37,000  Level FlightAware ADS-B (NZFP)
02:11AM 35.0481 -79.5843 29° Northeast 457 526 37,000  Level FlightAware ADS-B (NZFP)
02:12AM 35.1156 -79.5384 29° Northeast 457 526 37,000  Level FlightAware ADS-B
02:12AM 35.1883 -79.4883 29° Northeast 459 528 37,000  Level FlightAware ADS-B
02:13AM 35.2652 -79.4358 29° Northeast 461 531 37,000  Level FlightAware ADS-B
02:13AM 35.3006 -79.4116 29° Northeast 460 529 37,000  Level FlightAware ADS-B
02:14AM 35.3780 -79.3580 29° Northeast 456 525 37,000  Level FlightAware ADS-B
02:14AM 35.4098 -79.3366 29° Northeast 457 526 37,000  Level FlightAware ADS-B
02:15AM 35.4221 -79.3278 210° Southwest 457 526 37,000  Level FlightAware ADS-B
02:15AM 35.4852 -79.2842 29° Northeast 454 522 37,000  Level FlightAware ADS-B
02:16AM 35.5639 -79.2298 29° Northeast 452 520 37,000 -77 Level FlightAware ADS-B
02:16AM 35.6259 -79.1869 30° Northeast 452 520 36,900  Descending FlightAware ADS-B
02:17AM 35.6839 -79.1467 29° Northeast 453 521 37,000 71 Climbing FlightAware ADS-B
02:18AM 35.7528 -79.0986 30° Northeast 455 524 37,000  Level FlightAware ADS-B
02:18AM 35.8307 -79.0444 29° Northeast 455 524 37,000  Level FlightAware ADS-B
02:19AM 35.9275 -78.9766 30° Northeast 457 526 37,000  Level FlightAware ADS-B
02:20AM 35.9933 -78.9305 30° Northeast 455 524 37,000  Level FlightAware ADS-B
02:20AM 36.0684 -78.8776 30° Northeast 456 525 37,000  Level FlightAware ADS-B
02:21AM 36.1191 -78.8419 30° Northeast 454 522 37,000  Level FlightAware ADS-B
02:22AM 36.2161 -78.7737 30° Northeast 451 519 37,000  Level FlightAware ADS-B
02:22AM 36.2797 -78.7289 29° Northeast 455 524 37,000  Level FlightAware ADS-B
02:24AM 36.4454 -78.6115 30° Northeast 458 527 37,000  Level FlightAware ADS-B
02:25AM 36.5831 -78.5128 30° Northeast 461 531 37,000  Level Washington Center
02:26AM 36.6786 -78.4456 29° Northeast 461 531 37,000 -1,191 Level Washington Center
02:31AM 37.2920 -78.0023 29° Northeast 474 545 29,400 -1,504 Descending FlightAware ADS-B (KCHO)
02:32AM 37.3728 -77.9419 29° Northeast 482 555 28,000 -2,629 Descending Washington Center
02:38AM 37.9778 -77.5660 25° Northeast 746 858 13,100 -2,655 Descending FlightAware ADS-B
02:38AM 38.0120 -77.5460 25° Northeast 712 819 12,200 -2,301 Descending FlightAware ADS-B
02:39AM 38.0947 -77.4967 25° Northeast 589 678 10,300 -1,340 Descending FlightAware ADS-B
02:40AM 38.1541 -77.4617 25° Northeast 390 449 10,100 -625 Descending FlightAware ADS-B
02:41AM 38.2782 -77.3877 25° Northeast 321 369 8,800 -726 Descending FlightAware ADS-B
02:42AM 38.3040 -77.3724 25° Northeast 321 369 8,600 -689 Descending FlightAware ADS-B
02:42AM 38.3526 -77.3534 16° North 304 350 8,100 -677 Descending FlightAware ADS-B
02:43AM 38.3833 -77.3549 358° North 287 330 7,900 -558 Descending FlightAware ADS-B
02:43AM 38.4097 -77.3563 358° North 283 326 7,700 -600 Descending FlightAware ADS-B
02:43AM 38.4363 -77.3575 358° North 280 322 7,500 -585 Descending FlightAware ADS-B
02:44AM 38.4636 -77.3589 358° North 284 327 7,300 -732 Descending FlightAware ADS-B
02:44AM 38.4911 -77.3601 358° North 286 329 7,000 -750 Descending FlightAware ADS-B
02:44AM 38.5165 -77.3613 358° North 288 331 6,800 -600 Descending FlightAware ADS-B
02:45AM 38.5419 -77.3623 358° North 288 331 6,600 -769 Descending FlightAware ADS-B
02:45AM 38.5668 -77.3633 358° North 285 328 6,300 -750 Descending FlightAware ADS-B
02:45AM 38.5925 -77.3642 358° North 289 333 6,100 -732 Descending FlightAware ADS-B
02:46AM 38.6178 -77.3633 North 285 328 5,800 -923 Descending FlightAware ADS-B
02:46AM 38.6408 -77.3625 North 283 326 5,500 -750 Descending FlightAware ADS-B
02:46AM 38.6671 -77.3614 North 278 320 5,300 -769 Descending FlightAware ADS-B
02:47AM 38.6904 -77.3604 North 272 313 5,000 -900 Descending FlightAware ADS-B (KDAA)
02:47AM 38.6930 -77.3602 North 275 316 5,000 -923 Level FlightAware ADS-B
02:47AM 38.7072 -77.3597 360° North 272 313 4,800 -900 Descending FlightAware ADS-B (KDAA)
02:47AM 38.7187 -77.3594 North 267 307 4,700 -600 Descending FlightAware ADS-B
02:47AM 38.7326 -77.3589 360° North 265 305 4,600 -632 Descending FlightAware ADS-B (KDAA)
02:47AM 38.7419 -77.3587 North 267 307 4,500 -857 Descending FlightAware ADS-B
02:47AM 38.7488 -77.3583 360° North 258 297 4,400 -857 Descending FlightAware ADS-B (KDAA)
02:48AM 38.7675 -77.3577 North 269 310 4,200 -600 Descending FlightAware ADS-B
02:48AM 38.7740 -77.3575 360° North 251 289 4,200 -300 Level FlightAware ADS-B (KDAA)
02:48AM 38.7907 -77.3570 North 271 312 4,100 -571 Descending FlightAware ADS-B
02:48AM 38.7979 -77.3566 360° North 246 283 4,000 -600 Descending FlightAware ADS-B (KDAA)
02:48AM 38.8143 -77.3561 North 275 316 3,900 -375 Descending FlightAware ADS-B
02:48AM 38.8162 -77.3560 360° North 241 277 3,900 -333 Level FlightAware ADS-B (KDAA)
02:49AM 38.8344 -77.3553 North 275 316 3,800 -286 Descending FlightAware ADS-B
02:49AM 38.8399 -77.3551 North 239 275 3,800  Level FlightAware ADS-B (KDAA)
02:49AM 38.8530 -77.3546 360° North 237 273 3,800 -400 Level FlightAware ADS-B (KDAA)
02:49AM 38.8567 -77.3544 North 269 310 3,700 -333 Descending FlightAware ADS-B
02:49AM 38.8724 -77.3539 North 264 304 3,700  Level FlightAware ADS-B
02:49AM 38.8816 -77.3536 360° North 236 272 3,700 -182 Level FlightAware ADS-B (KDAA)
02:50AM 38.9091 -77.3525 360° North 235 270 3,600 -207 Descending FlightAware ADS-B (KDAA)
02:50AM 38.9108 -77.3525 North 253 291 3,600 -400 Level FlightAware ADS-B
02:50AM 38.9261 -77.3519 360° North 233 268 3,500 -500 Descending FlightAware ADS-B (KDAA)
02:50AM 38.9520 -77.3508 360° North 224 258 3,300 -585 Descending FlightAware ADS-B (KDAA)
02:51AM 38.8021 -77.3565 182° South 218 251 3,100 -875 Descending FlightAware ADS-B
02:51AM 39.0008 -77.3492 North 211 243 2,600 -529 Descending FlightAware ADS-B (KDAA)
02:52AM 39.0333 -77.3500 North 201 231 2,500 -291 Descending Potomac TRACON
02:53AM 39.0667 -77.3833 322° Northwest 171 197 2,100 -381 Descending Potomac TRACON
02:54AM 39.0500 -77.4333 247° West 160 184 1,700 -476 Descending Potomac TRACON
02:55AM 39.0000 -77.4333 180° South 134 154 1,100 -444 Descending Potomac TRACON
02:57AM 38.9211 -77.4372 182° South 139 160 300 -390 Descending Washington Center